KCEFKFIT

Guest
Details From KCEF - WESTOVER ARB METROPOLITAN
To KFIT - Fitchburg Muni
Flight Number -
Tags generated
Created
Modified
Stats Distance 42 nm / 77 km
Max Altitude 5,100 ft / 1,554 m
Waypoints 3
Social Downloads 0
Likes 0
Share VATSIM

Download

Looking for another format? Having issues loading an existing format? Contact us
Advertisement - Login to hide

Notes

Basic altitude profile: - Ascent Rate: 500ft/min - Ascent Speed: 110kts - Cruise Altitude: 3500ft - Cruise Speed: 150kts - Descent Rate: 120ft/min - Descent Speed: 110kts Options: - Use NATs: no - Use PACOTS: no - Use low airways: yes - Use high airways: no

Route

KCEF SPENO KFIT

ID Type Via Altitude Latitude Longitude Leg Dist Tot Dist Heading (true) Name
O KCEF APT - 0 ft / 0 m 42.19509˚ -72.53440˚ - 0 nm - WESTOVER ARB METROPOLITAN
SPENO FIX - 5,100 ft / 1,554 m 42.28015˚ -72.15408˚ 17 nm 17 nm 73° / 73° -
O KFIT APT - 0 ft / 0 m 42.55416˚ -71.75897˚ 24 nm 41 nm 47° / 47° Fitchburg Muni

Altitude Profile

Advertisement - Login to hide

KCEF

Details ICAO KCEF (CEF)
Name WESTOVER ARB METROPOLITAN
Region United States
Timezone America/New_York (UTC-4.0)
Stats Elevation 241 ft / 73 m (AMSL)
Location 42.195092° -72.534404°
Runways 2
Magnetic Variation 13.949° W

METAR

KCEF 222056Z 19011KT 10SM -RA FEW015 BKN065 OVC080 16/11 A3006 RMK AO2A SLP186 P0000 60000 T01580108

Decode

TAF

TAF TAF KCEF 221800Z 2218/2324 19009KT 9000 -SHRA FEW050 BKN070 OVC090 QNH3007INS BECMG 2223/2224 17006KT 9999 NSW BKN006 OVC010 QNH2997INS WND 28006KT AFT 2306 BECMG 2306/2307 17006KT 9999 SCT006 BKN010 BKN035 QNH2997INS BECMG 2311/2312 30006KT 9999 FEW035 FEW050 QNH2989INS TX24/2318Z TN15/2306Z

Decode

Departure Runways

ID Width Length Bearing (true) Bearing (mag) Surface Threshold Offset Overrun Length
05 164 ft / 50 m 11,598 ft / 3,535 m 34.09° 48.04° Asphalt 1,201 ft / 366 m 1,001 ft / 305 m
15 150 ft / 46 m 7,094 ft / 2,162 m 135.09° 149.04° Asphalt 0 ft / 0 m 0 ft / 0 m
23 164 ft / 50 m 11,598 ft / 3,535 m 214.11° 228.06° Asphalt 0 ft / 0 m 1,001 ft / 305 m
33 150 ft / 46 m 7,094 ft / 2,162 m 315.10° 329.05° Asphalt 0 ft / 0 m 0 ft / 0 m

KFIT

Details ICAO KFIT (FIT)
Name Fitchburg Muni
Region United States
Timezone America/New_York (UTC-4.0)
Stats Elevation 348 ft / 106 m (AMSL)
Location 42.554155° -71.758969°
Runways 2
Magnetic Variation 14.383° W

METAR

KFIT 222052Z AUTO 00000KT 10SM -RA OVC070 17/12 A3007 RMK AO2 RAB05 SLP184 P0000 60000 T01720122 56021

Decode

TAF

Not found

Destination Runways

ID Width Length Bearing (true) Bearing (mag) Surface Threshold Offset Overrun Length
02 75 ft / 23 m 3,509 ft / 1,070 m 8.00° 22.38° Asphalt 568 ft / 173 m 0 ft / 0 m
14 98 ft / 30 m 4,506 ft / 1,373 m 128.59° 142.97° Asphalt 0 ft / 0 m 0 ft / 0 m
20 75 ft / 23 m 3,509 ft / 1,070 m 188.00° 202.38° Asphalt 459 ft / 140 m 0 ft / 0 m
32 98 ft / 30 m 4,506 ft / 1,373 m 308.60° 322.98° Asphalt 243 ft / 74 m 0 ft / 0 m